sensor_id;sensor_type;location;lat;lon;timestamp;P1;durP1;ratioP1;P2;durP2;ratioP2
23322;SDS011;11833;52.554;13.554;2023-04-01T00:01:09;2.47;;;2.10;;
23322;SDS011;11833;52.554;13.554;2023-04-01T00:03:41;3.15;;;1.90;;
23322;SDS011;11833;52.554;13.554;2023-04-01T00:06:07;3.45;;;1.85;;
23322;SDS011;11833;52.554;13.554;2023-04-01T00:08:34;3.97;;;1.83;;
23322;SDS011;11833;52.554;13.554;2023-04-01T00:11:00;3.35;;;2.10;;
23322;SDS011;11833;52.554;13.554;2023-04-01T00:13:26;4.77;;;1.97;;
23322;SDS011;11833;52.554;13.554;2023-04-01T00:15:52;3.90;;;2.03;;
23322;SDS011;11833;52.554;13.554;2023-04-01T00:18:19;4.47;;;2.22;;
23322;SDS011;11833;52.554;13.554;2023-04-01T00:20:46;2.70;;;1.90;;
23322;SDS011;11833;52.554;13.554;2023-04-01T00:23:14;2.93;;;1.30;;
23322;SDS011;11833;52.554;13.554;2023-04-01T00:25:41;3.72;;;1.90;;
23322;SDS011;11833;52.554;13.554;2023-04-01T00:28:07;3.08;;;1.90;;
23322;SDS011;11833;52.554;13.554;2023-04-01T00:30:33;3.35;;;1.98;;
23322;SDS011;11833;52.554;13.554;2023-04-01T00:33:03;3.30;;;1.67;;
23322;SDS011;11833;52.554;13.554;2023-04-01T00:35:33;3.35;;;1.95;;
23322;SDS011;11833;52.554;13.554;2023-04-01T00:37:59;3.65;;;1.70;;
23322;SDS011;11833;52.554;13.554;2023-04-01T00:40:30;3.10;;;1.83;;
23322;SDS011;11833;52.554;13.554;2023-04-01T00:42:58;6.57;;;2.35;;
23322;SDS011;11833;52.554;13.554;2023-04-01T00:45:34;3.13;;;1.65;;
23322;SDS011;11833;52.554;13.554;2023-04-01T00:50:44;5.03;;;1.58;;
23322;SDS011;11833;52.554;13.554;2023-04-01T00:53:17;3.00;;;1.70;;
23322;SDS011;11833;52.554;13.554;2023-04-01T00:55:47;3.22;;;1.67;;
23322;SDS011;11833;52.554;13.554;2023-04-01T00:58:23;2.80;;;1.90;;
23322;SDS011;11833;52.554;13.554;2023-04-01T01:00:52;4.00;;;2.20;;
23322;SDS011;11833;52.554;13.554;2023-04-01T01:03:20;4.03;;;1.83;;
23322;SDS011;11833;52.554;13.554;2023-04-01T01:08:52;3.60;;;1.70;;
23322;SDS011;11833;52.554;13.554;2023-04-01T01:27:25;3.13;;;1.80;;
23322;SDS011;11833;52.554;13.554;2023-04-01T01:29:40;2.90;;;1.80;;
23322;SDS011;11833;52.554;13.554;2023-04-01T01:32:44;4.70;;;2.00;;
23322;SDS011;11833;52.554;13.554;2023-04-01T01:35:30;3.70;;;1.83;;
23322;SDS011;11833;52.554;13.554;2023-04-01T01:41:01;4.67;;;2.37;;
23322;SDS011;11833;52.554;13.554;2023-04-01T01:43:32;3.35;;;1.73;;
23322;SDS011;11833;52.554;13.554;2023-04-01T01:46:10;4.00;;;2.20;;
23322;SDS011;11833;52.554;13.554;2023-04-01T01:48:40;4.25;;;2.03;;
23322;SDS011;11833;52.554;13.554;2023-04-01T01:51:07;4.57;;;2.38;;
23322;SDS011;11833;52.554;13.554;2023-04-01T01:53:33;5.35;;;2.15;;
23322;SDS011;11833;52.554;13.554;2023-04-01T01:55:59;4.20;;;1.90;;
23322;SDS011;11833;52.554;13.554;2023-04-01T01:58:39;4.50;;;2.38;;
23322;SDS011;11833;52.554;13.554;2023-04-01T02:01:17;4.28;;;2.40;;
23322;SDS011;11833;52.554;13.554;2023-04-01T02:03:48;3.97;;;2.60;;
23322;SDS011;11833;52.554;13.554;2023-04-01T02:06:17;5.45;;;2.55;;
23322;SDS011;11833;52.554;13.554;2023-04-01T02:08:49;5.10;;;2.75;;
23322;SDS011;11833;52.554;13.554;2023-04-01T02:17:33;4.17;;;2.50;;
23322;SDS011;11833;52.554;13.554;2023-04-01T02:20:07;4.47;;;2.40;;
23322;SDS011;11833;52.554;13.554;2023-04-01T02:22:40;5.32;;;2.67;;
23322;SDS011;11833;52.554;13.554;2023-04-01T02:25:14;4.28;;;2.45;;
23322;SDS011;11833;52.554;13.554;2023-04-01T02:27:53;5.07;;;2.42;;
23322;SDS011;11833;52.554;13.554;2023-04-01T02:30:22;4.88;;;2.75;;
23322;SDS011;11833;52.554;13.554;2023-04-01T02:32:51;5.30;;;2.73;;
23322;SDS011;11833;52.554;13.554;2023-04-01T02:35:17;6.00;;;3.28;;
23322;SDS011;11833;52.554;13.554;2023-04-01T02:37:44;4.72;;;2.95;;
23322;SDS011;11833;52.554;13.554;2023-04-01T02:40:14;6.43;;;3.00;;
23322;SDS011;11833;52.554;13.554;2023-04-01T02:42:41;4.93;;;2.75;;
23322;SDS011;11833;52.554;13.554;2023-04-01T02:45:07;5.47;;;3.28;;
23322;SDS011;11833;52.554;13.554;2023-04-01T02:47:34;4.82;;;3.30;;
23322;SDS011;11833;52.554;13.554;2023-04-01T02:50:00;5.53;;;3.20;;
23322;SDS011;11833;52.554;13.554;2023-04-01T02:52:29;5.95;;;2.97;;
23322;SDS011;11833;52.554;13.554;2023-04-01T02:54:56;3.53;;;2.35;;
23322;SDS011;11833;52.554;13.554;2023-04-01T02:57:22;5.03;;;2.90;;
23322;SDS011;11833;52.554;13.554;2023-04-01T02:59:48;4.60;;;2.63;;
23322;SDS011;11833;52.554;13.554;2023-04-01T03:02:14;5.53;;;2.55;;
23322;SDS011;11833;52.554;13.554;2023-04-01T03:04:40;5.57;;;2.53;;
23322;SDS011;11833;52.554;13.554;2023-04-01T03:07:07;3.78;;;2.58;;
23322;SDS011;11833;52.554;13.554;2023-04-01T03:09:35;5.65;;;2.20;;
23322;SDS011;11833;52.554;13.554;2023-04-01T03:12:02;6.40;;;2.55;;
23322;SDS011;11833;52.554;13.554;2023-04-01T03:14:28;4.47;;;2.88;;
23322;SDS011;11833;52.554;13.554;2023-04-01T03:16:53;5.85;;;2.60;;
23322;SDS011;11833;52.554;13.554;2023-04-01T03:19:19;3.97;;;2.75;;
23322;SDS011;11833;52.554;13.554;2023-04-01T03:21:45;3.67;;;1.90;;
23322;SDS011;11833;52.554;13.554;2023-04-01T03:24:11;4.87;;;2.87;;
23322;SDS011;11833;52.554;13.554;2023-04-01T03:26:40;5.05;;;2.63;;
23322;SDS011;11833;52.554;13.554;2023-04-01T03:29:06;5.95;;;2.72;;
23322;SDS011;11833;52.554;13.554;2023-04-01T03:31:31;3.80;;;2.60;;
23322;SDS011;11833;52.554;13.554;2023-04-01T03:33:57;4.40;;;2.30;;
23322;SDS011;11833;52.554;13.554;2023-04-01T03:36:23;4.07;;;2.60;;
23322;SDS011;11833;52.554;13.554;2023-04-01T03:38:49;4.80;;;3.00;;
23322;SDS011;11833;52.554;13.554;2023-04-01T03:41:15;3.58;;;2.47;;
23322;SDS011;11833;52.554;13.554;2023-04-01T03:43:42;3.67;;;2.70;;
23322;SDS011;11833;52.554;13.554;2023-04-01T03:46:09;7.50;;;2.83;;
23322;SDS011;11833;52.554;13.554;2023-04-01T03:48:35;4.47;;;2.65;;
23322;SDS011;11833;52.554;13.554;2023-04-01T03:51:00;6.25;;;3.00;;
23322;SDS011;11833;52.554;13.554;2023-04-01T03:53:26;3.40;;;2.30;;
23322;SDS011;11833;52.554;13.554;2023-04-01T03:55:52;6.32;;;2.75;;
23322;SDS011;11833;52.554;13.554;2023-04-01T03:58:18;4.00;;;2.33;;
23322;SDS011;11833;52.554;13.554;2023-04-01T04:00:45;3.40;;;2.40;;
23322;SDS011;11833;52.554;13.554;2023-04-01T04:03:11;4.55;;;2.67;;
23322;SDS011;11833;52.554;13.554;2023-04-01T04:05:37;3.53;;;2.47;;
23322;SDS011;11833;52.554;13.554;2023-04-01T04:08:03;5.13;;;2.80;;
23322;SDS011;11833;52.554;13.554;2023-04-01T04:10:28;4.47;;;2.70;;
23322;SDS011;11833;52.554;13.554;2023-04-01T04:12:55;3.83;;;2.50;;
23322;SDS011;11833;52.554;13.554;2023-04-01T04:15:21;5.32;;;2.92;;
23322;SDS011;11833;52.554;13.554;2023-04-01T04:17:47;4.57;;;2.77;;
23322;SDS011;11833;52.554;13.554;2023-04-01T04:20:13;4.53;;;3.10;;
23322;SDS011;11833;52.554;13.554;2023-04-01T04:22:40;5.25;;;3.00;;
23322;SDS011;11833;52.554;13.554;2023-04-01T04:25:06;4.72;;;2.90;;
23322;SDS011;11833;52.554;13.554;2023-04-01T04:27:32;4.68;;;2.97;;
23322;SDS011;11833;52.554;13.554;2023-04-01T04:29:59;5.75;;;3.10;;
23322;SDS011;11833;52.554;13.554;2023-04-01T04:32:25;7.03;;;2.90;;
23322;SDS011;11833;52.554;13.554;2023-04-01T04:34:50;4.95;;;2.75;;
23322;SDS011;11833;52.554;13.554;2023-04-01T04:37:16;5.90;;;3.25;;
23322;SDS011;11833;52.554;13.554;2023-04-01T04:39:42;6.47;;;3.10;;
23322;SDS011;11833;52.554;13.554;2023-04-01T04:42:07;7.90;;;2.80;;
23322;SDS011;11833;52.554;13.554;2023-04-01T04:44:33;5.25;;;3.08;;
23322;SDS011;11833;52.554;13.554;2023-04-01T04:46:59;4.73;;;2.70;;
23322;SDS011;11833;52.554;13.554;2023-04-01T04:49:25;6.13;;;3.03;;
23322;SDS011;11833;52.554;13.554;2023-04-01T04:51:50;4.77;;;2.90;;
23322;SDS011;11833;52.554;13.554;2023-04-01T04:54:17;4.78;;;2.83;;
23322;SDS011;11833;52.554;13.554;2023-04-01T04:56:43;3.77;;;2.93;;
23322;SDS011;11833;52.554;13.554;2023-04-01T04:59:08;6.77;;;3.27;;
23322;SDS011;11833;52.554;13.554;2023-04-01T05:01:34;6.35;;;3.17;;
23322;SDS011;11833;52.554;13.554;2023-04-01T05:04:00;6.70;;;3.30;;
23322;SDS011;11833;52.554;13.554;2023-04-01T05:06:26;5.65;;;3.05;;
23322;SDS011;11833;52.554;13.554;2023-04-01T05:08:54;5.73;;;2.80;;
23322;SDS011;11833;52.554;13.554;2023-04-01T05:11:21;5.05;;;2.97;;
23322;SDS011;11833;52.554;13.554;2023-04-01T05:13:47;5.53;;;3.25;;
23322;SDS011;11833;52.554;13.554;2023-04-01T05:16:17;4.18;;;2.55;;
23322;SDS011;11833;52.554;13.554;2023-04-01T05:18:45;6.43;;;2.90;;
23322;SDS011;11833;52.554;13.554;2023-04-01T05:21:12;6.65;;;3.00;;
23322;SDS011;11833;52.554;13.554;2023-04-01T05:23:40;5.50;;;3.85;;
23322;SDS011;11833;52.554;13.554;2023-04-01T05:26:08;5.88;;;3.78;;
23322;SDS011;11833;52.554;13.554;2023-04-01T05:28:36;6.30;;;3.72;;
23322;SDS011;11833;52.554;13.554;2023-04-01T05:31:03;6.40;;;3.50;;
23322;SDS011;11833;52.554;13.554;2023-04-01T05:33:30;5.25;;;3.10;;
23322;SDS011;11833;52.554;13.554;2023-04-01T05:35:56;5.40;;;3.47;;
23322;SDS011;11833;52.554;13.554;2023-04-01T05:38:31;6.88;;;3.72;;
23322;SDS011;11833;52.554;13.554;2023-04-01T05:41:00;5.70;;;3.50;;
23322;SDS011;11833;52.554;13.554;2023-04-01T05:43:27;7.35;;;3.67;;
23322;SDS011;11833;52.554;13.554;2023-04-01T05:45:54;4.28;;;2.70;;
23322;SDS011;11833;52.554;13.554;2023-04-01T05:48:20;8.35;;;3.83;;
23322;SDS011;11833;52.554;13.554;2023-04-01T05:50:46;4.15;;;3.00;;
23322;SDS011;11833;52.554;13.554;2023-04-01T05:53:11;4.90;;;2.93;;
23322;SDS011;11833;52.554;13.554;2023-04-01T05:55:37;9.70;;;3.95;;
23322;SDS011;11833;52.554;13.554;2023-04-01T05:58:03;5.75;;;3.40;;
23322;SDS011;11833;52.554;13.554;2023-04-01T06:00:29;6.93;;;3.60;;
23322;SDS011;11833;52.554;13.554;2023-04-01T06:02:55;4.63;;;3.10;;
23322;SDS011;11833;52.554;13.554;2023-04-01T06:05:26;7.10;;;3.53;;
23322;SDS011;11833;52.554;13.554;2023-04-01T06:07:58;7.65;;;3.60;;
23322;SDS011;11833;52.554;13.554;2023-04-01T06:10:36;9.32;;;3.88;;
23322;SDS011;11833;52.554;13.554;2023-04-01T06:21:32;5.63;;;3.72;;
23322;SDS011;11833;52.554;13.554;2023-04-01T06:24:50;6.73;;;3.63;;
23322;SDS011;11833;52.554;13.554;2023-04-01T06:33:15;7.95;;;4.43;;
23322;SDS011;11833;52.554;13.554;2023-04-01T06:44:17;6.60;;;4.05;;
23322;SDS011;11833;52.554;13.554;2023-04-01T06:58:03;6.05;;;4.95;;
23322;SDS011;11833;52.554;13.554;2023-04-01T07:00:46;5.82;;;4.10;;
23322;SDS011;11833;52.554;13.554;2023-04-01T07:06:09;7.05;;;5.10;;
23322;SDS011;11833;52.554;13.554;2023-04-01T07:09:01;5.70;;;4.73;;
23322;SDS011;11833;52.554;13.554;2023-04-01T07:11:33;6.50;;;5.22;;
23322;SDS011;11833;52.554;13.554;2023-04-01T07:16:39;7.80;;;5.03;;
23322;SDS011;11833;52.554;13.554;2023-04-01T07:24:44;6.28;;;4.53;;
23322;SDS011;11833;52.554;13.554;2023-04-01T07:27:11;5.55;;;4.57;;
23322;SDS011;11833;52.554;13.554;2023-04-01T07:29:39;5.60;;;4.70;;
23322;SDS011;11833;52.554;13.554;2023-04-01T07:37:51;5.53;;;3.47;;
23322;SDS011;11833;52.554;13.554;2023-04-01T07:40:26;5.00;;;4.07;;
23322;SDS011;11833;52.554;13.554;2023-04-01T07:49:29;4.78;;;3.03;;
23322;SDS011;11833;52.554;13.554;2023-04-01T07:55:54;8.02;;;6.15;;
23322;SDS011;11833;52.554;13.554;2023-04-01T08:06:37;10.57;;;8.50;;
23322;SDS011;11833;52.554;13.554;2023-04-01T08:12:13;13.05;;;8.93;;
23322;SDS011;11833;52.554;13.554;2023-04-01T08:20:14;10.03;;;6.50;;
23322;SDS011;11833;52.554;13.554;2023-04-01T08:22:49;7.90;;;6.35;;
23322;SDS011;11833;52.554;13.554;2023-04-01T08:25:24;9.82;;;8.05;;
23322;SDS011;11833;52.554;13.554;2023-04-01T08:35:59;31.25;;;22.83;;
23322;SDS011;11833;52.554;13.554;2023-04-01T08:59:25;9.05;;;6.85;;
23322;SDS011;11833;52.554;13.554;2023-04-01T09:17:04;9.10;;;7.30;;
23322;SDS011;11833;52.554;13.554;2023-04-01T09:25:15;6.22;;;5.63;;
23322;SDS011;11833;52.554;13.554;2023-04-01T09:28:10;7.43;;;6.50;;
23322;SDS011;11833;52.554;13.554;2023-04-01T09:34:53;5.30;;;4.53;;
23322;SDS011;11833;52.554;13.554;2023-04-01T09:38:00;7.32;;;5.32;;
23322;SDS011;11833;52.554;13.554;2023-04-01T09:43:47;9.82;;;8.82;;
23322;SDS011;11833;52.554;13.554;2023-04-01T09:52:38;7.00;;;6.25;;
23322;SDS011;11833;52.554;13.554;2023-04-01T10:19:01;6.00;;;5.40;;
23322;SDS011;11833;52.554;13.554;2023-04-01T10:33:01;5.20;;;4.70;;
23322;SDS011;11833;52.554;13.554;2023-04-01T11:33:02;2.40;;;2.20;;
23322;SDS011;11833;52.554;13.554;2023-04-01T11:50:31;6.40;;;2.65;;
23322;SDS011;11833;52.554;13.554;2023-04-01T12:02:25;3.45;;;3.03;;
23322;SDS011;11833;52.554;13.554;2023-04-01T12:05:14;4.00;;;2.80;;
23322;SDS011;11833;52.554;13.554;2023-04-01T12:08:18;3.78;;;2.13;;
23322;SDS011;11833;52.554;13.554;2023-04-01T12:17:44;4.70;;;2.60;;
23322;SDS011;11833;52.554;13.554;2023-04-01T12:21:05;4.28;;;3.30;;
23322;SDS011;11833;52.554;13.554;2023-04-01T12:29:42;2.97;;;2.55;;
23322;SDS011;11833;52.554;13.554;2023-04-01T12:32:25;2.60;;;2.33;;
23322;SDS011;11833;52.554;13.554;2023-04-01T12:56:09;3.10;;;2.80;;
23322;SDS011;11833;52.554;13.554;2023-04-01T12:59:19;4.50;;;3.10;;
23322;SDS011;11833;52.554;13.554;2023-04-01T13:02:11;4.18;;;3.78;;
23322;SDS011;11833;52.554;13.554;2023-04-01T13:08:18;4.40;;;3.40;;
23322;SDS011;11833;52.554;13.554;2023-04-01T13:10:57;3.50;;;3.20;;
23322;SDS011;11833;52.554;13.554;2023-04-01T13:13:37;3.65;;;2.88;;
23322;SDS011;11833;52.554;13.554;2023-04-01T13:19:09;3.45;;;2.65;;
23322;SDS011;11833;52.554;13.554;2023-04-01T13:25:02;4.30;;;2.70;;
23322;SDS011;11833;52.554;13.554;2023-04-01T13:27:43;2.67;;;2.20;;
23322;SDS011;11833;52.554;13.554;2023-04-01T13:42:39;4.50;;;4.03;;
23322;SDS011;11833;52.554;13.554;2023-04-01T13:54:25;4.25;;;3.65;;
23322;SDS011;11833;52.554;13.554;2023-04-01T14:11:13;3.65;;;3.35;;
23322;SDS011;11833;52.554;13.554;2023-04-01T14:20:04;5.35;;;4.85;;
23322;SDS011;11833;52.554;13.554;2023-04-01T14:28:53;4.35;;;3.95;;
23322;SDS011;11833;52.554;13.554;2023-04-01T14:31:57;8.57;;;5.70;;
23322;SDS011;11833;52.554;13.554;2023-04-01T14:46:22;7.32;;;6.10;;
23322;SDS011;11833;52.554;13.554;2023-04-01T14:49:05;3.65;;;3.25;;
23322;SDS011;11833;52.554;13.554;2023-04-01T14:51:47;4.88;;;4.28;;
23322;SDS011;11833;52.554;13.554;2023-04-01T14:54:16;4.70;;;3.83;;
23322;SDS011;11833;52.554;13.554;2023-04-01T14:56:49;3.33;;;2.83;;
23322;SDS011;11833;52.554;13.554;2023-04-01T15:00:19;3.65;;;3.10;;
23322;SDS011;11833;52.554;13.554;2023-04-01T15:08:18;5.17;;;4.40;;
23322;SDS011;11833;52.554;13.554;2023-04-01T15:11:02;3.67;;;3.38;;
23322;SDS011;11833;52.554;13.554;2023-04-01T15:13:50;6.05;;;5.38;;
23322;SDS011;11833;52.554;13.554;2023-04-01T15:19:12;4.85;;;2.97;;
23322;SDS011;11833;52.554;13.554;2023-04-01T15:33:56;3.28;;;2.92;;
23322;SDS011;11833;52.554;13.554;2023-04-01T15:36:59;3.10;;;2.80;;
23322;SDS011;11833;52.554;13.554;2023-04-01T15:55:11;3.20;;;2.90;;
23322;SDS011;11833;52.554;13.554;2023-04-01T15:57:43;3.67;;;2.72;;
23322;SDS011;11833;52.554;13.554;2023-04-01T16:00:31;3.83;;;2.92;;
23322;SDS011;11833;52.554;13.554;2023-04-01T16:09:39;3.47;;;3.15;;
23322;SDS011;11833;52.554;13.554;2023-04-01T16:18:38;3.33;;;2.80;;
